createdAt,value
2022-08-26T00:01:32.970Z,22.48
2022-08-26T00:05:32.189Z,22.80
2022-08-26T00:09:29.527Z,16.60
2022-08-26T00:13:26.719Z,26.80
2022-08-26T00:17:24.197Z,21.85
2022-08-26T00:21:24.901Z,19.75
2022-08-26T00:25:22.703Z,21.08
2022-08-26T00:29:21.272Z,20.20
2022-08-26T00:33:21.440Z,25.20
2022-08-26T00:37:18.759Z,22.88
2022-08-26T00:41:18.107Z,21.13
2022-08-26T00:45:16.266Z,27.60
2022-08-26T00:49:36.231Z,27.45
2022-08-26T00:53:43.566Z,23.73
2022-08-26T00:57:41.568Z,22.08
2022-08-26T01:01:43.180Z,20.25
2022-08-26T01:05:44.035Z,20.20
2022-08-26T01:09:41.187Z,21.38
2022-08-26T01:13:40.526Z,24.88
2022-08-26T01:17:38.743Z,26.73
2022-08-26T01:21:54.744Z,19.05
2022-08-26T01:26:05.078Z,21.63
2022-08-26T01:30:05.659Z,24.38
2022-08-26T01:34:17.823Z,18.58
2022-08-26T01:38:18.431Z,19.67
2022-08-26T01:42:19.848Z,18.50
2022-08-26T01:46:19.783Z,19.17
2022-08-26T01:50:30.739Z,23.23
2022-08-26T01:54:28.044Z,20.50
2022-08-26T01:58:36.603Z,24.80
2022-08-26T02:02:33.804Z,22.27
2022-08-26T02:06:31.989Z,23.35
2022-08-26T02:10:29.823Z,23.95
2022-08-26T02:14:34.835Z,21.80
2022-08-26T02:18:36.610Z,21.27
2022-08-26T02:22:34.653Z,20.58
2022-08-26T02:26:31.681Z,22.75
2022-08-26T02:30:33.692Z,26.05
2022-08-26T02:34:33.176Z,23.42
2022-08-26T02:38:30.282Z,27.48
2022-08-26T02:42:28.494Z,24.83
2022-08-26T02:46:29.852Z,28.00
2022-08-26T02:50:27.555Z,20.63
2022-08-26T02:54:24.591Z,27.65
2022-08-26T02:58:21.733Z,25.95
2022-08-26T03:02:18.823Z,21.30
2022-08-26T03:06:16.071Z,24.08
2022-08-26T03:10:13.423Z,27.25
2022-08-26T03:14:12.011Z,25.40
2022-08-26T03:18:09.837Z,23.55
2022-08-26T03:22:07.368Z,28.95
2022-08-26T03:26:05.851Z,25.33
2022-08-26T03:30:22.787Z,25.23
2022-08-26T03:34:20.189Z,24.85
2022-08-26T03:38:25.805Z,29.17
2022-08-26T03:42:23.344Z,27.45
2022-08-26T03:46:20.971Z,29.00
2022-08-26T03:50:23.033Z,29.98
2022-08-26T03:54:21.383Z,27.13
2022-08-26T03:58:19.056Z,27.48
2022-08-26T04:02:16.771Z,27.73
2022-08-26T04:06:14.894Z,19.45
2022-08-26T04:10:20.276Z,26.13
2022-08-26T04:14:23.490Z,28.55
2022-08-26T04:18:21.533Z,28.98
2022-08-26T04:22:24.018Z,28.17
2022-08-26T04:26:23.903Z,24.67
2022-08-26T04:30:21.955Z,24.45
2022-08-26T04:34:19.454Z,26.80
2022-08-26T04:38:16.987Z,25.08
2022-08-26T04:42:21.036Z,22.50
2022-08-26T04:46:25.456Z,25.33
2022-08-26T04:50:23.866Z,24.95
2022-08-26T04:54:22.167Z,22.23
2022-08-26T04:58:22.351Z,30.50
2022-08-26T05:02:20.914Z,29.53
2022-08-26T05:06:19.505Z,22.45
2022-08-26T05:10:16.555Z,22.90
2022-08-26T05:14:16.143Z,20.23
2022-08-26T05:18:16.516Z,22.90
2022-08-26T05:22:14.584Z,21.83
2022-08-26T05:26:12.091Z,26.15
2022-08-26T05:30:13.922Z,24.27
2022-08-26T05:34:11.042Z,26.10
2022-08-26T05:38:13.436Z,20.45
2022-08-26T05:42:10.464Z,22.40
2022-08-26T05:46:08.136Z,22.95
2022-08-26T05:50:06.115Z,24.05
2022-08-26T05:54:04.159Z,25.42
2022-08-26T05:58:02.769Z,20.55
2022-08-26T06:01:59.929Z,22.13
2022-08-26T06:05:57.248Z,29.45
2022-08-26T06:10:01.624Z,24.23
2022-08-26T06:14:11.852Z,26.75
2022-08-26T06:18:09.462Z,33.05
2022-08-26T06:22:27.162Z,32.40
2022-08-26T06:26:24.426Z,27.45
2022-08-26T06:30:21.886Z,34.58
2022-08-26T06:34:20.136Z,27.30
2022-08-26T06:38:17.939Z,30.92
2022-08-26T06:42:14.937Z,29.50
2022-08-26T06:46:17.298Z,27.77
2022-08-26T06:50:14.369Z,29.95
2022-08-26T06:54:11.672Z,32.30
2022-08-26T06:58:09.919Z,29.05
2022-08-26T07:02:07.434Z,26.50
2022-08-26T07:06:05.574Z,31.48
2022-08-26T07:10:05.779Z,29.23
2022-08-26T07:14:04.457Z,25.77
2022-08-26T07:18:03.208Z,31.42
2022-08-26T07:22:04.217Z,22.38
2022-08-26T07:26:11.564Z,26.05
2022-08-26T07:30:09.528Z,31.95
2022-08-26T07:34:13.972Z,28.08
2022-08-26T07:38:12.889Z,34.38
2022-08-26T07:42:13.815Z,26.23
2022-08-26T07:46:18.610Z,25.08
2022-08-26T07:50:49.549Z,23.15
2022-08-26T07:54:41.558Z,30.98
2022-08-26T07:58:38.919Z,27.15
2022-08-26T08:02:38.504Z,23.92
2022-08-26T08:06:37.522Z,22.23
2022-08-26T08:10:36.605Z,25.92
2022-08-26T08:14:36.523Z,25.50
2022-08-26T08:18:34.076Z,31.65
2022-08-26T08:22:32.556Z,23.20
2022-08-26T08:26:30.082Z,25.02
2022-08-26T08:30:28.508Z,19.98
2022-08-26T08:34:28.706Z,24.50
2022-08-26T08:38:27.287Z,19.00
2022-08-26T08:42:45.761Z,21.10
2022-08-26T08:46:46.912Z,23.40
2022-08-26T08:50:53.994Z,24.35
2022-08-26T08:54:51.138Z,23.23
2022-08-26T08:59:04.344Z,20.35
2022-08-26T09:03:19.310Z,25.75
2022-08-26T09:07:23.524Z,16.77
2022-08-26T09:11:21.783Z,15.30
2022-08-26T09:15:46.767Z,21.50
2022-08-26T09:19:52.830Z,20.08
2022-08-26T09:23:52.907Z,18.05
2022-08-26T09:27:53.508Z,21.27
2022-08-26T09:31:52.198Z,18.45
2022-08-26T09:35:52.389Z,18.60
2022-08-26T09:39:49.439Z,18.15
2022-08-26T09:44:14.656Z,23.40
2022-08-26T09:48:29.030Z,15.50
2022-08-26T09:52:27.568Z,16.17
2022-08-26T09:56:35.555Z,12.13
2022-08-26T10:00:58.647Z,17.65
2022-08-26T10:04:59.337Z,19.17
2022-08-26T10:09:10.943Z,17.50
2022-08-26T10:13:42.975Z,15.27
2022-08-26T10:17:51.795Z,16.08
2022-08-26T10:22:07.633Z,12.90
2022-08-26T10:26:15.862Z,19.00
2022-08-26T10:30:19.444Z,11.00
2022-08-26T10:34:17.969Z,14.15
2022-08-26T10:38:22.827Z,15.57
2022-08-26T10:42:37.626Z,17.63
2022-08-26T10:46:45.618Z,15.48
2022-08-26T10:50:47.943Z,12.43
2022-08-26T10:54:56.501Z,15.45
2022-08-26T10:59:16.694Z,14.27
2022-08-26T11:03:54.213Z,15.30
2022-08-26T11:08:20.861Z,14.65
2022-08-26T11:13:05.015Z,14.55
2022-08-26T11:17:02.495Z,11.40
2022-08-26T11:20:59.565Z,15.70
2022-08-26T11:24:56.486Z,13.88
2022-08-26T11:28:53.722Z,12.18
2022-08-26T11:32:56.367Z,12.82
2022-08-26T11:36:59.149Z,12.38
2022-08-26T11:41:09.020Z,11.70
2022-08-26T11:45:39.074Z,13.90
2022-08-26T11:49:37.910Z,17.30
2022-08-26T11:53:41.121Z,16.10
2022-08-26T11:57:52.003Z,10.30
2022-08-26T12:01:53.508Z,13.73
2022-08-26T12:05:53.996Z,13.15
2022-08-26T12:09:59.264Z,18.67
2022-08-26T12:14:16.118Z,12.77
2022-08-26T12:18:30.093Z,13.25
2022-08-26T12:22:32.695Z,15.23
2022-08-26T12:26:37.232Z,15.18
2022-08-26T12:30:34.581Z,15.35
2022-08-26T12:34:31.757Z,13.45
2022-08-26T12:38:32.038Z,14.50
2022-08-26T12:42:42.467Z,16.98
2022-08-26T12:46:39.552Z,17.02
2022-08-26T12:50:47.146Z,20.52
2022-08-26T12:54:59.792Z,16.77
2022-08-26T12:59:23.290Z,21.63
2022-08-26T13:03:35.333Z,24.63
2022-08-26T13:07:32.437Z,21.60
2022-08-26T13:11:45.156Z,13.90
2022-08-26T13:15:42.197Z,12.32
2022-08-26T13:19:39.200Z,15.90
2022-08-26T13:23:40.600Z,12.93
2022-08-26T13:27:39.423Z,9.75
2022-08-26T13:31:39.928Z,17.17
2022-08-26T13:35:36.931Z,9.75
2022-08-26T13:39:34.112Z,11.38
2022-08-26T13:43:31.779Z,14.80
2022-08-26T13:47:28.945Z,16.52
2022-08-26T13:51:27.499Z,16.05
2022-08-26T13:55:28.041Z,14.00
2022-08-26T13:59:25.132Z,14.90
2022-08-26T14:03:22.532Z,19.40
2022-08-26T14:07:19.624Z,18.40
2022-08-26T14:11:17.116Z,10.93
2022-08-26T14:15:16.886Z,12.95
2022-08-26T14:19:14.156Z,13.27
2022-08-26T14:23:13.986Z,13.43
2022-08-26T14:27:13.212Z,11.52
2022-08-26T14:31:10.352Z,15.65
2022-08-26T14:35:10.152Z,11.27
2022-08-26T14:39:11.838Z,10.77
2022-08-26T14:43:09.715Z,10.00
2022-08-26T14:47:07.057Z,12.10
2022-08-26T14:51:05.453Z,12.00
2022-08-26T14:55:02.428Z,18.95
2022-08-26T14:58:59.860Z,12.38
2022-08-26T15:02:58.590Z,10.02
2022-08-26T15:06:58.903Z,14.75
2022-08-26T15:10:56.025Z,12.00
2022-08-26T15:14:53.721Z,11.30
2022-08-26T15:18:51.796Z,10.27
2022-08-26T15:22:48.983Z,10.98
2022-08-26T15:26:49.603Z,15.75
2022-08-26T15:30:46.722Z,10.95
2022-08-26T15:34:44.029Z,12.82
2022-08-26T15:38:42.602Z,9.73
2022-08-26T15:42:39.711Z,13.32
2022-08-26T15:46:38.379Z,10.80
2022-08-26T15:50:35.690Z,10.65
2022-08-26T15:54:32.734Z,12.18
2022-08-26T15:58:29.985Z,16.35
2022-08-26T16:02:31.796Z,13.65
2022-08-26T16:06:33.650Z,15.43
2022-08-26T16:10:34.494Z,16.58
2022-08-26T16:14:31.579Z,15.07
2022-08-26T16:18:28.992Z,15.40
2022-08-26T16:22:27.090Z,12.80
2022-08-26T16:26:32.515Z,14.68
2022-08-26T16:30:29.535Z,16.85
2022-08-26T16:34:26.552Z,15.52
2022-08-26T16:38:23.617Z,14.80
2022-08-26T16:42:20.742Z,16.02
2022-08-26T16:46:18.518Z,19.40
2022-08-26T16:50:17.782Z,17.65
2022-08-26T16:54:14.872Z,15.13
2022-08-26T16:58:11.951Z,17.05
2022-08-26T17:02:11.676Z,14.43
2022-08-26T17:06:11.385Z,10.98
2022-08-26T17:10:34.096Z,13.18
2022-08-26T17:14:50.904Z,12.88
2022-08-26T17:41:00.926Z,15.30
2022-08-26T17:50:49.825Z,18.45
2022-08-26T18:00:47.501Z,14.57
2022-08-26T18:04:49.112Z,12.98
2022-08-26T18:14:43.079Z,15.30
2022-08-26T18:18:53.622Z,18.48
2022-08-26T18:22:54.498Z,16.48
2022-08-26T18:26:51.528Z,15.93
2022-08-26T18:30:48.554Z,14.80
2022-08-26T18:34:45.576Z,16.75
2022-08-26T18:38:42.747Z,16.25
2022-08-26T18:42:41.462Z,13.27
2022-08-26T18:46:38.488Z,10.88
2022-08-26T18:50:40.312Z,12.00
2022-08-26T18:54:37.678Z,13.07
2022-08-26T18:58:34.875Z,10.93
2022-08-26T19:02:32.825Z,10.32
2022-08-26T19:06:33.124Z,12.25
2022-08-26T19:10:30.286Z,15.45
2022-08-26T19:14:28.672Z,17.10
2022-08-26T19:18:26.034Z,10.85
2022-08-26T19:22:23.539Z,10.55
2022-08-26T19:26:20.557Z,10.30
2022-08-26T19:30:17.551Z,16.35
2022-08-26T19:34:15.421Z,18.88
2022-08-26T19:38:16.769Z,22.88
2022-08-26T19:42:14.298Z,12.00
2022-08-26T19:46:20.170Z,12.77
2022-08-26T19:50:17.908Z,11.52
2022-08-26T19:54:15.380Z,12.65
2022-08-26T19:58:12.393Z,12.57
2022-08-26T20:02:11.139Z,11.65
2022-08-26T20:06:13.374Z,12.45
2022-08-26T20:10:13.779Z,11.13
2022-08-26T20:14:10.877Z,16.48
2022-08-26T20:18:26.980Z,9.02
2022-08-26T20:22:24.500Z,9.10
2022-08-26T20:26:21.631Z,14.27
2022-08-26T20:30:18.758Z,14.10
2022-08-26T20:34:18.634Z,15.85
2022-08-26T20:38:18.490Z,12.15
2022-08-26T20:42:20.361Z,11.93
2022-08-26T20:46:24.544Z,10.05
2022-08-26T20:50:24.651Z,14.45
2022-08-26T20:54:28.415Z,9.68
2022-08-26T20:58:26.110Z,10.45
2022-08-26T21:02:23.155Z,9.75
2022-08-26T21:06:21.163Z,10.18
2022-08-26T21:10:18.970Z,8.30
2022-08-26T21:14:19.101Z,8.25
2022-08-26T21:18:16.447Z,9.85
2022-08-26T21:22:14.060Z,9.68
2022-08-26T21:26:15.593Z,9.65
2022-08-26T21:30:16.109Z,12.48
2022-08-26T21:34:18.631Z,11.07
2022-08-26T21:38:17.994Z,13.85
2022-08-26T21:42:15.041Z,11.52
2022-08-26T21:46:16.288Z,14.65
2022-08-26T21:50:16.002Z,12.20
2022-08-26T21:54:14.003Z,10.80
2022-08-26T21:58:12.614Z,11.32
2022-08-26T22:02:10.486Z,10.65
2022-08-26T22:06:08.041Z,11.63
2022-08-26T22:10:05.676Z,9.30
2022-08-26T22:14:03.145Z,12.73
2022-08-26T22:18:00.579Z,13.18
2022-08-26T22:21:58.759Z,12.30
2022-08-26T22:25:57.173Z,12.10
2022-08-26T22:29:54.339Z,11.68
2022-08-26T22:33:51.905Z,16.00
2022-08-26T22:37:49.528Z,12.75
2022-08-26T22:41:48.701Z,17.05
2022-08-26T22:45:48.668Z,20.38
2022-08-26T22:49:46.989Z,18.55
2022-08-26T22:53:45.292Z,23.73
2022-08-26T22:57:42.371Z,23.40
2022-08-26T23:01:43.296Z,22.10
2022-08-26T23:05:41.539Z,25.30
2022-08-26T23:09:38.699Z,24.60
2022-08-26T23:13:36.811Z,28.30
2022-08-26T23:17:35.459Z,23.58
2022-08-26T23:21:32.931Z,23.42
2022-08-26T23:25:31.154Z,24.58
2022-08-26T23:29:29.015Z,29.63
2022-08-26T23:33:46.275Z,27.77
2022-08-26T23:37:48.465Z,21.40
2022-08-26T23:41:46.453Z,29.05
2022-08-26T23:45:43.930Z,23.52
2022-08-26T23:49:41.896Z,21.80
2022-08-26T23:53:39.065Z,22.42
2022-08-26T23:57:36.978Z,28.17
